createdAt,value
2022-12-24T00:05:01.290Z,5.57
2022-12-24T00:10:08.481Z,8.97
2022-12-24T00:15:11.860Z,5.10
2022-12-24T00:20:14.886Z,6.13
2022-12-24T00:25:17.948Z,4.83
2022-12-24T00:30:20.904Z,2.20
2022-12-24T00:35:24.882Z,4.90
2022-12-24T00:40:28.134Z,5.80
2022-12-24T00:45:31.213Z,5.50
2022-12-24T00:50:34.218Z,8.27
2022-12-24T00:55:37.467Z,5.67
2022-12-24T01:00:40.436Z,5.77
2022-12-24T01:05:48.675Z,6.67
2022-12-24T01:10:59.051Z,6.03
2022-12-24T01:16:36.455Z,5.20
2022-12-24T01:21:54.852Z,3.77
2022-12-24T01:27:21.187Z,8.23
2022-12-24T01:32:37.224Z,6.97
2022-12-24T01:37:59.337Z,4.17
2022-12-24T01:43:31.422Z,4.60
2022-12-24T01:49:21.952Z,4.87
2022-12-24T01:54:37.119Z,6.23
2022-12-24T01:59:46.516Z,6.90
2022-12-24T02:05:40.167Z,4.50
2022-12-24T02:10:56.913Z,6.33
2022-12-24T02:16:29.556Z,5.07
2022-12-24T02:22:17.135Z,4.50
2022-12-24T02:27:58.878Z,6.77
2022-12-24T02:33:27.192Z,5.67
2022-12-24T02:38:49.923Z,2.33
2022-12-24T02:44:17.653Z,6.27
2022-12-24T02:49:31.959Z,6.43
2022-12-24T02:54:41.474Z,3.23
2022-12-24T02:59:57.396Z,7.57
2022-12-24T03:05:45.313Z,5.87
2022-12-24T03:11:35.930Z,5.37
2022-12-24T03:17:21.172Z,2.37
2022-12-24T03:22:44.444Z,6.80
2022-12-24T03:27:57.879Z,5.20
2022-12-24T03:33:22.535Z,7.47
2022-12-24T03:38:50.976Z,8.57
2022-12-24T03:44:08.247Z,4.80
2022-12-24T03:49:24.066Z,7.80
2022-12-24T03:54:33.600Z,3.73
2022-12-24T03:59:42.764Z,3.33
2022-12-24T04:05:01.320Z,6.03
2022-12-24T04:10:07.223Z,6.40
2022-12-24T04:15:10.661Z,8.37
2022-12-24T04:20:14.044Z,5.33
2022-12-24T04:25:17.150Z,5.83
2022-12-24T04:30:20.308Z,7.43
2022-12-24T04:35:23.383Z,10.10
2022-12-24T04:40:26.477Z,5.87
2022-12-24T04:45:29.488Z,7.27
2022-12-24T04:50:32.561Z,5.03
2022-12-24T04:55:35.528Z,4.40
2022-12-24T05:00:38.590Z,6.63
2022-12-24T05:06:01.261Z,4.33
2022-12-24T05:11:12.684Z,9.27
2022-12-24T05:16:38.330Z,12.97
2022-12-24T05:22:33.408Z,6.20
2022-12-24T05:27:54.439Z,5.70
2022-12-24T05:33:23.928Z,7.10
2022-12-24T05:39:00.183Z,7.63
2022-12-24T05:44:18.686Z,10.67
2022-12-24T05:49:28.476Z,7.63
2022-12-24T05:54:38.194Z,7.23
2022-12-24T05:59:48.271Z,5.67
2022-12-24T06:05:04.658Z,8.23
2022-12-24T06:10:11.920Z,7.13
2022-12-24T06:15:20.266Z,6.57
2022-12-24T06:20:26.671Z,7.70
2022-12-24T06:25:29.733Z,7.30
2022-12-24T06:30:32.874Z,11.60
2022-12-24T06:35:35.877Z,9.40
2022-12-24T06:40:43.540Z,11.47
2022-12-24T06:45:48.063Z,5.60
2022-12-24T06:50:59.014Z,7.97
2022-12-24T06:56:31.059Z,7.03
2022-12-24T07:02:02.742Z,3.20
2022-12-24T07:07:21.429Z,11.23
2022-12-24T07:12:40.909Z,9.40
2022-12-24T07:17:58.918Z,12.27
2022-12-24T07:23:21.802Z,13.03
2022-12-24T07:28:29.855Z,9.53
2022-12-24T07:33:47.370Z,8.87
2022-12-24T07:39:04.137Z,9.83
2022-12-24T07:44:25.058Z,9.07
2022-12-24T07:49:37.631Z,5.90
2022-12-24T07:54:47.108Z,8.27
2022-12-24T07:59:53.799Z,6.80
2022-12-24T08:05:15.722Z,11.07
2022-12-24T08:10:34.651Z,8.40
2022-12-24T08:15:58.945Z,11.17
2022-12-24T08:21:10.675Z,7.33
2022-12-24T08:26:31.936Z,12.73
2022-12-24T08:37:33.975Z,11.87
2022-12-24T08:43:14.262Z,10.67
2022-12-24T08:48:20.677Z,7.70
2022-12-24T08:53:38.485Z,10.40
2022-12-24T08:59:08.586Z,8.80
2022-12-24T09:04:32.761Z,9.90
2022-12-24T09:09:40.627Z,11.83
2022-12-24T09:14:56.948Z,10.87
2022-12-24T09:20:07.165Z,9.97
2022-12-24T09:25:10.795Z,12.07
2022-12-24T09:30:14.468Z,8.57
2022-12-24T09:35:17.609Z,9.67
2022-12-24T09:40:29.316Z,10.50
2022-12-24T09:45:38.739Z,7.30
2022-12-24T09:51:32.960Z,10.67
2022-12-24T09:56:48.567Z,10.20
2022-12-24T10:02:13.736Z,6.70
2022-12-24T10:07:50.271Z,5.57
2022-12-24T10:13:39.612Z,8.23
2022-12-24T10:19:08.139Z,4.20
2022-12-24T10:24:49.835Z,4.80
2022-12-24T10:30:19.870Z,5.77
2022-12-24T10:35:36.922Z,7.87
2022-12-24T10:40:44.767Z,8.67
2022-12-24T10:46:09.076Z,6.50
2022-12-24T10:51:50.128Z,10.43
2022-12-24T10:57:15.596Z,8.53
2022-12-24T11:03:01.014Z,7.83
2022-12-24T11:08:33.600Z,11.47
2022-12-24T11:14:10.643Z,6.63
2022-12-24T11:19:42.881Z,10.33
2022-12-24T11:24:50.087Z,11.67
2022-12-24T11:29:53.349Z,11.43
2022-12-24T11:34:56.324Z,3.93
2022-12-24T11:40:02.520Z,8.33
2022-12-24T11:45:16.959Z,11.23
2022-12-24T11:50:35.991Z,8.07
2022-12-24T11:56:24.140Z,7.00
2022-12-24T12:02:12.386Z,8.63
2022-12-24T12:07:28.155Z,8.07
2022-12-24T12:13:14.922Z,5.20
2022-12-24T12:18:49.102Z,5.70
2022-12-24T12:24:13.009Z,7.07
2022-12-24T12:29:37.510Z,5.40
2022-12-24T12:35:03.882Z,6.00
2022-12-24T12:40:15.500Z,4.90
2022-12-24T12:45:33.686Z,5.17
2022-12-24T12:50:59.822Z,7.90
2022-12-24T12:56:53.574Z,6.53
2022-12-24T13:02:50.948Z,5.37
2022-12-24T13:08:11.233Z,6.43
2022-12-24T13:13:37.315Z,8.93
2022-12-24T13:19:01.645Z,6.83
2022-12-24T13:24:29.896Z,8.67
2022-12-24T13:29:40.581Z,6.57
2022-12-24T13:34:59.620Z,6.93
2022-12-24T13:40:26.099Z,6.37
2022-12-24T13:45:42.020Z,8.10
2022-12-24T13:51:05.039Z,4.30
2022-12-24T13:56:26.192Z,7.50
2022-12-24T14:01:56.680Z,3.50
2022-12-24T14:13:37.690Z,6.40
2022-12-24T14:19:05.603Z,7.47
2022-12-24T14:24:18.337Z,7.03
2022-12-24T14:29:40.930Z,4.40
2022-12-24T14:34:45.669Z,6.37
2022-12-24T14:39:57.058Z,9.80
2022-12-24T14:45:07.665Z,6.77
2022-12-24T14:50:28.775Z,9.73
2022-12-24T14:55:42.837Z,7.60
2022-12-24T15:00:46.166Z,11.03
2022-12-24T15:06:27.387Z,9.97
2022-12-24T15:11:38.704Z,6.00
2022-12-24T15:17:00.787Z,12.43
2022-12-24T15:22:49.164Z,11.17
2022-12-24T15:28:12.913Z,8.80
2022-12-24T15:33:25.586Z,13.77
2022-12-24T15:38:45.243Z,9.17
2022-12-24T15:44:08.418Z,10.30
2022-12-24T15:49:24.938Z,11.37
2022-12-24T15:54:33.352Z,15.17
2022-12-24T15:59:43.306Z,15.17
2022-12-24T16:05:19.620Z,13.23
2022-12-24T16:10:26.584Z,15.43
2022-12-24T16:15:30.572Z,9.47
2022-12-24T16:20:34.110Z,18.50
2022-12-24T16:25:37.264Z,15.80
2022-12-24T16:30:40.605Z,12.93
2022-12-24T16:35:44.821Z,9.40
2022-12-24T16:40:48.237Z,7.33
2022-12-24T16:46:29.326Z,7.40
2022-12-24T16:51:43.572Z,8.87
2022-12-24T16:56:55.644Z,5.43
2022-12-24T17:02:14.707Z,9.27
2022-12-24T17:07:29.443Z,7.27
2022-12-24T17:12:37.808Z,8.27
2022-12-24T17:18:07.907Z,8.73
2022-12-24T17:23:13.784Z,12.77
2022-12-24T17:28:27.241Z,11.33
2022-12-24T17:33:48.805Z,11.57
2022-12-24T17:39:12.319Z,10.40
2022-12-24T17:44:25.258Z,16.67
2022-12-24T17:49:36.948Z,13.13
2022-12-24T17:54:45.037Z,9.37
2022-12-24T17:59:49.354Z,8.90
2022-12-24T18:05:04.298Z,8.30
2022-12-24T18:10:10.533Z,10.37
2022-12-24T18:15:13.549Z,10.47
2022-12-24T18:20:16.631Z,15.43
2022-12-24T18:25:21.507Z,11.97
2022-12-24T18:30:27.860Z,9.90
2022-12-24T18:35:33.839Z,15.53
2022-12-24T18:40:38.007Z,15.70
2022-12-24T18:45:42.428Z,19.57
2022-12-24T18:51:00.345Z,11.13
2022-12-24T18:56:34.318Z,14.27
2022-12-24T19:02:20.040Z,15.07
2022-12-24T19:07:35.325Z,19.43
2022-12-24T19:12:52.032Z,16.87
2022-12-24T19:18:15.311Z,18.60
2022-12-24T19:23:30.811Z,8.57
2022-12-24T19:28:55.787Z,10.17
2022-12-24T19:34:10.702Z,11.40
2022-12-24T19:39:15.716Z,13.63
2022-12-24T19:44:26.440Z,12.60
2022-12-24T19:49:36.397Z,11.90
2022-12-24T19:54:40.438Z,12.17
2022-12-24T19:59:43.427Z,10.67
2022-12-24T20:04:46.435Z,9.03
2022-12-24T20:10:16.817Z,15.37
2022-12-24T20:15:25.395Z,13.10
2022-12-24T20:20:29.119Z,10.63
2022-12-24T20:25:35.787Z,7.27
2022-12-24T20:30:40.580Z,9.00
2022-12-24T20:35:43.583Z,10.53
2022-12-24T20:40:49.928Z,12.77
2022-12-24T20:46:27.128Z,8.50
2022-12-24T20:51:52.957Z,11.00
2022-12-24T20:57:11.611Z,12.13
2022-12-24T21:02:31.716Z,9.30
2022-12-24T21:07:39.187Z,13.33
2022-12-24T21:13:14.315Z,11.57
2022-12-24T21:18:30.857Z,13.87
2022-12-24T21:23:47.438Z,11.23
2022-12-24T21:28:54.600Z,15.17
2022-12-24T21:34:03.223Z,18.57
2022-12-24T21:39:16.811Z,12.03
2022-12-24T21:44:25.645Z,14.63
2022-12-24T21:49:50.862Z,17.10
2022-12-24T21:54:53.888Z,18.87
2022-12-24T22:00:19.138Z,14.17
2022-12-24T22:05:43.706Z,15.07
2022-12-24T22:16:51.763Z,12.13
2022-12-24T22:22:16.986Z,15.67
2022-12-24T22:27:41.998Z,15.73
2022-12-24T22:33:12.855Z,14.37
2022-12-24T22:38:19.297Z,13.87
2022-12-24T22:43:29.031Z,18.67
2022-12-24T22:48:55.082Z,17.70
2022-12-24T22:54:14.646Z,17.17
2022-12-24T22:59:22.489Z,18.43
2022-12-24T23:04:48.104Z,14.90
2022-12-24T23:10:18.239Z,13.87
2022-12-24T23:15:36.902Z,17.50
2022-12-24T23:21:02.388Z,19.60
2022-12-24T23:26:27.660Z,15.93
2022-12-24T23:31:43.354Z,17.43
2022-12-24T23:37:10.477Z,21.27
2022-12-24T23:42:44.452Z,19.87
2022-12-24T23:48:07.303Z,13.03
2022-12-24T23:53:26.723Z,19.83
2022-12-24T23:58:45.669Z,17.23
